Time;durP1;ratioP1;P1;durP2;ratioP2;P2;SDS_P1;SDS_P2;PMS_P1;PMS_P2;Temp;Humidity;BMP_temperature;BMP_pressure;BME280_temperature;BME280_humidity;BME280_pressure;Samples;Min_cycle;Max_cycle;Signal;HPM_P1;HPM_P2
2023/04/14 00:00:35;;;;;;;14.40;13.60;;;;;;;;;;5043276;28;20045;-61
2023/04/14 00:03:01;;;;;;;14.23;13.43;;;;;;;;;;5043941;28;20037;-61
2023/04/14 00:05:30;;;;;;;15.43;14.52;;;;;;;;;;5051676;28;20048;-62
2023/04/14 00:07:55;;;;;;;15.05;14.15;;;;;;;;;;5039928;28;20029;-61
2023/04/14 00:10:20;;;;;;;14.95;14.07;;;;;;;;;;5056238;28;20388;-59
2023/04/14 00:12:46;;;;;;;15.20;14.30;;;;;;;;;;5054048;28;20025;-61
2023/04/14 00:15:11;;;;;;;14.48;13.68;;;;;;;;;;5052431;28;20369;-59
2023/04/14 00:17:36;;;;;;;13.93;13.23;;;;;;;;;;5050145;28;20046;-61
2023/04/14 00:20:03;;;;;;;14.52;13.73;;;;;;;;;;5046359;28;20052;-61
2023/04/14 00:22:28;;;;;;;14.60;13.80;;;;;;;;;;5056755;28;20514;-61
2023/04/14 00:24:54;;;;;;;14.80;14.00;;;;;;;;;;5059127;28;20028;-59
2023/04/14 00:27:19;;;;;;;15.52;14.63;;;;;;;;;;5059395;28;20017;-61
2023/04/14 00:29:44;;;;;;;15.15;14.25;;;;;;;;;;5056088;28;20116;-61
2023/04/14 00:32:10;;;;;;;15.25;14.35;;;;;;;;;;5055707;28;20083;-60
2023/04/14 00:34:35;;;;;;;15.07;14.18;;;;;;;;;;5054602;28;20056;-60
2023/04/14 00:37:00;;;;;;;14.80;13.93;;;;;;;;;;5055282;28;20062;-60
2023/04/14 00:39:25;;;;;;;15.23;14.32;;;;;;;;;;5055353;28;20518;-61
2023/04/14 00:41:51;;;;;;;14.77;13.95;;;;;;;;;;5054959;28;20025;-60
2023/04/14 00:44:16;;;;;;;14.63;13.85;;;;;;;;;;5055006;28;20013;-60
2023/04/14 00:46:42;;;;;;;14.70;13.90;;;;;;;;;;5055552;28;20025;-60
2023/04/14 00:49:08;;;;;;;14.70;13.90;;;;;;;;;;5055205;28;20450;-61
2023/04/14 00:51:33;;;;;;;15.48;14.57;;;;;;;;;;5054332;28;20021;-60
2023/04/14 00:54:01;;;;;;;15.93;15.02;;;;;;;;;;5054739;28;20025;-60
2023/04/14 00:56:28;;;;;;;16.13;15.23;;;;;;;;;;5051198;28;20079;-60
2023/04/14 00:58:54;;;;;;;16.08;15.18;;;;;;;;;;5054176;28;20048;-60
2023/04/14 01:01:19;;;;;;;15.80;14.93;;;;;;;;;;5054825;28;20017;-60
2023/04/14 01:03:45;;;;;;;16.48;15.50;;;;;;;;;;5042626;28;20046;-59
2023/04/14 01:06:10;;;;;;;16.52;15.60;;;;;;;;;;5054584;28;20102;-60
2023/04/14 01:08:36;;;;;;;16.33;15.43;;;;;;;;;;5054289;28;20045;-60
2023/04/14 01:11:09;;;;;;;17.33;16.27;;;;;;;;;;5054580;28;20541;-60
2023/04/14 01:13:43;;;;;;;17.08;16.10;;;;;;;;;;5054386;28;20020;-60
2023/04/14 01:16:09;;;;;;;;;;;;;;;;;;5054799;28;20021;-60
2023/04/14 01:18:40;;;;;;;16.00;15.10;;;;;;;;;;5054452;28;19911;-60
2023/04/14 01:21:09;;;;;;;16.02;15.13;;;;;;;;;;5046936;28;20099;-60
2023/04/14 01:23:38;;;;;;;17.02;16.00;;;;;;;;;;5054336;28;20400;-60
2023/04/14 01:26:17;;;;;;;16.05;15.15;;;;;;;;;;5053516;28;20025;-60
2023/04/14 01:28:54;;;;;;;16.50;15.50;;;;;;;;;;5048896;28;20048;-60
2023/04/14 01:31:22;;;;;;;16.73;15.73;;;;;;;;;;5054277;28;20133;-60
2023/04/14 01:33:49;;;;;;;17.10;16.00;;;;;;;;;;5053128;28;20472;-61
2023/04/14 01:36:20;;;;;;;16.73;15.73;;;;;;;;;;5053910;28;20028;-61
2023/04/14 01:38:47;;;;;;;15.93;15.02;;;;;;;;;;5053856;28;20071;-61
2023/04/14 01:41:15;;;;;;;16.50;15.50;;;;;;;;;;5053160;28;20030;-60
2023/04/14 01:43:43;;;;;;;16.52;15.52;;;;;;;;;;5053878;28;20029;-60
2023/04/14 01:46:13;;;;;;;15.63;14.73;;;;;;;;;;5053962;28;20059;-61
2023/04/14 01:48:40;;;;;;;16.27;15.27;;;;;;;;;;5053726;28;20480;-60
2023/04/14 01:51:06;;;;;;;15.93;15.02;;;;;;;;;;5053726;28;20023;-60
2023/04/14 01:53:32;;;;;;;15.70;14.80;;;;;;;;;;5045038;28;20022;-59
2023/04/14 01:55:59;;;;;;;16.40;15.40;;;;;;;;;;5053994;28;20013;-60
2023/04/14 01:58:27;;;;;;;15.20;14.40;;;;;;;;;;5053269;28;20021;-60
2023/04/14 02:00:52;;;;;;;15.45;14.55;;;;;;;;;;5053753;28;20028;-61
2023/04/14 02:03:18;;;;;;;15.38;14.57;;;;;;;;;;5040025;28;20385;-60
2023/04/14 02:05:46;;;;;;;15.60;14.70;;;;;;;;;;5053571;28;20021;-60
2023/04/14 02:08:12;;;;;;;15.10;14.30;;;;;;;;;;5053717;28;20028;-60
2023/04/14 02:10:40;;;;;;;15.57;14.68;;;;;;;;;;5053398;28;20017;-60
2023/04/14 02:13:06;;;;;;;15.77;14.82;;;;;;;;;;5053235;28;20021;-60
2023/04/14 02:15:32;;;;;;;15.80;14.90;;;;;;;;;;5048335;28;20017;-60
2023/04/14 02:17:58;;;;;;;15.73;14.82;;;;;;;;;;5047365;28;20024;-61
2023/04/14 02:20:24;;;;;;;16.73;15.73;;;;;;;;;;5053685;28;20017;-60
2023/04/14 02:22:49;;;;;;;15.85;14.95;;;;;;;;;;5055267;28;20100;-60
2023/04/14 02:25:15;;;;;;;16.30;15.30;;;;;;;;;;5055642;28;20064;-59
2023/04/14 02:27:47;;;;;;;15.60;14.70;;;;;;;;;;5053314;28;20017;-59
2023/04/14 02:30:20;;;;;;;15.75;14.82;;;;;;;;;;5053250;28;20043;-61
2023/04/14 02:32:48;;;;;;;15.60;14.70;;;;;;;;;;5052318;28;20017;-61
2023/04/14 02:35:18;;;;;;;15.43;14.52;;;;;;;;;;5053018;28;20029;-60
2023/04/14 02:37:47;;;;;;;15.85;14.88;;;;;;;;;;5052787;28;20029;-61
2023/04/14 02:40:18;;;;;;;15.88;14.98;;;;;;;;;;5053204;28;20091;-60
2023/04/14 02:42:44;;;;;;;15.30;14.50;;;;;;;;;;5053057;28;20024;-61
2023/04/14 02:45:17;;;;;;;15.40;14.52;;;;;;;;;;5052914;28;20009;-62
2023/04/14 02:47:44;;;;;;;15.70;14.73;;;;;;;;;;5053083;28;20556;-59
2023/04/14 02:50:11;;;;;;;15.68;14.77;;;;;;;;;;5048726;28;20425;-60
2023/04/14 02:52:37;;;;;;;15.30;14.50;;;;;;;;;;5053235;28;20028;-60
2023/04/14 02:55:04;;;;;;;15.75;14.85;;;;;;;;;;5052486;28;20132;-60
2023/04/14 02:57:30;;;;;;;15.70;14.90;;;;;;;;;;5052912;28;20071;-60
2023/04/14 02:59:56;;;;;;;16.30;15.40;;;;;;;;;;5052298;28;20518;-60
2023/04/14 03:02:21;;;;;;;16.58;15.65;;;;;;;;;;5048507;28;20051;-60
2023/04/14 03:04:47;;;;;;;16.35;15.45;;;;;;;;;;5052338;28;20045;-60
2023/04/14 03:07:13;;;;;;;17.42;16.38;;;;;;;;;;5045666;28;20044;-59
2023/04/14 03:09:39;;;;;;;17.98;16.88;;;;;;;;;;5052383;28;20024;-61
2023/04/14 03:12:05;;;;;;;19.10;18.00;;;;;;;;;;5044337;28;20025;-61
2023/04/14 03:14:31;;;;;;;19.02;17.83;;;;;;;;;;5047227;28;20082;-59
2023/04/14 03:16:56;;;;;;;20.65;19.35;;;;;;;;;;5052232;28;20415;-61
2023/04/14 03:19:22;;;;;;;19.83;18.63;;;;;;;;;;5052121;28;20028;-60
2023/04/14 03:21:51;;;;;;;20.60;19.20;;;;;;;;;;5052068;28;20115;-60
2023/04/14 03:24:23;;;;;;;18.83;17.73;;;;;;;;;;5045784;28;20514;-60
2023/04/14 03:26:51;;;;;;;18.55;17.45;;;;;;;;;;5050113;28;20407;-60
2023/04/14 03:29:19;;;;;;;18.40;17.30;;;;;;;;;;5045593;28;20103;-60
2023/04/14 03:31:45;;;;;;;18.48;17.38;;;;;;;;;;5051475;28;20025;-60
2023/04/14 03:34:14;;;;;;;18.52;17.45;;;;;;;;;;5052025;28;20384;-60
2023/04/14 03:36:41;;;;;;;17.70;16.70;;;;;;;;;;5051688;28;20013;-60
2023/04/14 03:39:09;;;;;;;17.60;16.58;;;;;;;;;;5051803;28;20021;-60
2023/04/14 03:41:36;;;;;;;17.00;16.00;;;;;;;;;;5049855;28;20047;-60
2023/04/14 03:44:03;;;;;;;16.90;15.90;;;;;;;;;;5051436;28;20104;-60
2023/04/14 03:46:29;;;;;;;17.05;15.95;;;;;;;;;;5046450;28;20020;-60
2023/04/14 03:48:57;;;;;;;16.52;15.52;;;;;;;;;;5051469;28;20068;-60
2023/04/14 03:51:26;;;;;;;15.60;14.70;;;;;;;;;;5051829;28;20469;-60
2023/04/14 03:53:53;;;;;;;16.30;15.30;;;;;;;;;;5050018;28;20519;-59
2023/04/14 03:56:18;;;;;;;15.48;14.57;;;;;;;;;;5047251;28;20047;-60
2023/04/14 03:58:48;;;;;;;16.10;15.10;;;;;;;;;;5038099;28;20124;-60
2023/04/14 04:01:13;;;;;;;15.57;14.68;;;;;;;;;;5043970;28;20394;-61
2023/04/14 04:03:39;;;;;;;15.13;14.30;;;;;;;;;;5051791;28;20104;-60
2023/04/14 04:06:05;;;;;;;15.40;14.50;;;;;;;;;;5043048;28;20546;-60
2023/04/14 04:08:31;;;;;;;14.73;13.93;;;;;;;;;;5046322;28;20049;-60
2023/04/14 04:10:56;;;;;;;14.57;13.77;;;;;;;;;;5051269;28;20029;-60
2023/04/14 04:13:22;;;;;;;14.57;13.77;;;;;;;;;;5051098;28;20017;-60
2023/04/14 04:15:49;;;;;;;14.73;13.93;;;;;;;;;;5053372;28;20013;-61
2023/04/14 04:18:15;;;;;;;14.32;13.57;;;;;;;;;;5050974;28;20515;-61
2023/04/14 04:20:41;;;;;;;15.55;14.65;;;;;;;;;;5046344;28;20033;-61
2023/04/14 04:23:08;;;;;;;14.48;13.73;;;;;;;;;;5051338;28;20032;-60
2023/04/14 04:25:37;;;;;;;15.10;14.25;;;;;;;;;;5051063;28;20025;-61
2023/04/14 04:28:02;;;;;;;14.27;13.57;;;;;;;;;;5051136;28;20032;-60
2023/04/14 04:30:29;;;;;;;14.35;13.63;;;;;;;;;;5050773;28;20029;-60
2023/04/14 04:32:54;;;;;;;15.25;14.45;;;;;;;;;;5042341;28;20021;-60
2023/04/14 04:35:21;;;;;;;15.32;14.50;;;;;;;;;;5050766;28;20032;-59
2023/04/14 04:37:47;;;;;;;14.77;14.02;;;;;;;;;;5050834;28;20032;-60
2023/04/14 04:40:12;;;;;;;14.20;13.50;;;;;;;;;;5051022;28;20397;-60
2023/04/14 04:42:41;;;;;;;14.18;13.48;;;;;;;;;;5044449;28;20021;-60
2023/04/14 04:45:06;;;;;;;14.27;13.57;;;;;;;;;;5050871;28;20104;-60
2023/04/14 04:47:32;;;;;;;13.85;13.18;;;;;;;;;;5051193;28;20052;-60
2023/04/14 04:49:57;;;;;;;14.60;13.90;;;;;;;;;;5050295;28;20032;-60
2023/04/14 04:52:22;;;;;;;14.50;13.80;;;;;;;;;;5049962;28;20033;-60
2023/04/14 04:54:51;;;;;;;14.20;13.50;;;;;;;;;;5050858;28;20456;-59
2023/04/14 04:57:16;;;;;;;13.50;12.90;;;;;;;;;;5037852;28;20404;-60
2023/04/14 04:59:41;;;;;;;14.48;13.77;;;;;;;;;;5050628;28;20041;-61
2023/04/14 05:02:07;;;;;;;14.55;13.85;;;;;;;;;;5039980;28;20469;-60
2023/04/14 05:04:32;;;;;;;13.85;13.20;;;;;;;;;;5050690;28;20104;-60
2023/04/14 05:06:57;;;;;;;14.45;13.75;;;;;;;;;;5049919;28;20531;-59
2023/04/14 05:09:23;;;;;;;14.30;13.60;;;;;;;;;;5048625;28;20026;-59
2023/04/14 05:11:48;;;;;;;14.75;14.05;;;;;;;;;;5052463;28;20438;-60
2023/04/14 05:14:13;;;;;;;14.45;13.75;;;;;;;;;;5053081;28;20142;-60
2023/04/14 05:16:39;;;;;;;13.63;13.02;;;;;;;;;;5054164;28;20051;-61
2023/04/14 05:19:04;;;;;;;14.48;13.77;;;;;;;;;;5046612;28;20021;-60
2023/04/14 05:21:30;;;;;;;13.70;13.10;;;;;;;;;;5051001;28;20013;-60
2023/04/14 05:23:55;;;;;;;14.95;14.25;;;;;;;;;;5053290;28;20660;-60
2023/04/14 05:26:21;;;;;;;13.80;13.20;;;;;;;;;;5054468;28;20014;-60
2023/04/14 05:28:46;;;;;;;14.18;13.48;;;;;;;;;;5053970;28;20448;-60
2023/04/14 05:31:11;;;;;;;14.07;13.38;;;;;;;;;;5054457;28;20025;-61
2023/04/14 05:33:37;;;;;;;14.90;14.20;;;;;;;;;;5053974;28;20064;-59
2023/04/14 05:36:03;;;;;;;14.35;13.65;;;;;;;;;;5054185;28;20430;-59
2023/04/14 05:38:28;;;;;;;14.02;13.32;;;;;;;;;;5051225;28;20017;-60
2023/04/14 05:40:53;;;;;;;14.63;13.93;;;;;;;;;;5054152;28;20032;-59
2023/04/14 05:43:19;;;;;;;13.88;13.27;;;;;;;;;;5055187;28;20044;-60
2023/04/14 05:45:47;;;;;;;13.63;13.02;;;;;;;;;;5053950;28;20495;-60
2023/04/14 05:48:15;;;;;;;14.05;13.35;;;;;;;;;;5053836;28;20482;-60
2023/04/14 05:50:41;;;;;;;13.77;13.13;;;;;;;;;;5053538;28;20052;-60
2023/04/14 05:53:06;;;;;;;14.65;13.95;;;;;;;;;;5053677;28;20078;-61
2023/04/14 05:55:32;;;;;;;14.05;13.38;;;;;;;;;;5053306;28;20032;-61
2023/04/14 05:57:57;;;;;;;13.77;13.18;;;;;;;;;;5053015;28;20074;-60
2023/04/14 06:00:24;;;;;;;13.98;13.27;;;;;;;;;;5049885;28;20227;-59
2023/04/14 06:02:50;;;;;;;13.45;12.85;;;;;;;;;;5053392;28;20021;-59
2023/04/14 06:05:15;;;;;;;13.40;12.80;;;;;;;;;;5053865;28;20495;-60
2023/04/14 06:07:41;;;;;;;14.20;13.50;;;;;;;;;;5053841;28;20029;-60
2023/04/14 06:10:06;;;;;;;14.63;13.93;;;;;;;;;;5052967;28;20435;-64
2023/04/14 06:12:32;;;;;;;13.35;12.75;;;;;;;;;;5053525;28;20029;-60
2023/04/14 06:14:57;;;;;;;14.18;13.48;;;;;;;;;;5055738;28;20017;-60
2023/04/14 06:17:22;;;;;;;14.50;13.80;;;;;;;;;;5053102;28;20048;-59
2023/04/14 06:19:48;;;;;;;13.50;12.90;;;;;;;;;;5052692;28;20028;-60
2023/04/14 06:22:17;;;;;;;13.48;12.88;;;;;;;;;;5053166;28;20254;-59
2023/04/14 06:24:43;;;;;;;14.13;13.43;;;;;;;;;;5053080;28;20021;-59
2023/04/14 06:27:09;;;;;;;14.23;13.52;;;;;;;;;;5052842;28;20021;-61
2023/04/14 06:29:34;;;;;;;13.98;13.27;;;;;;;;;;5052732;28;20017;-61
2023/04/14 06:32:00;;;;;;;13.52;12.93;;;;;;;;;;5051671;28;20047;-61
2023/04/14 06:34:25;;;;;;;13.90;13.20;;;;;;;;;;5051966;28;20024;-60
2023/04/14 06:36:51;;;;;;;14.20;13.50;;;;;;;;;;5052248;28;20246;-61
2023/04/14 06:39:17;;;;;;;13.85;13.23;;;;;;;;;;5052578;28;20017;-61
2023/04/14 06:41:42;;;;;;;12.88;12.27;;;;;;;;;;5052583;28;20040;-60
2023/04/14 06:44:07;;;;;;;13.73;13.07;;;;;;;;;;5052144;28;20027;-60
2023/04/14 06:46:34;;;;;;;13.40;12.80;;;;;;;;;;5052724;28;20028;-60
2023/04/14 06:49:00;;;;;;;13.48;12.88;;;;;;;;;;5051601;28;20286;-61
2023/04/14 06:51:26;;;;;;;13.30;12.70;;;;;;;;;;5045282;28;20082;-60
2023/04/14 06:53:51;;;;;;;13.45;12.85;;;;;;;;;;5052125;28;20432;-60
2023/04/14 06:56:16;;;;;;;13.02;12.43;;;;;;;;;;5055283;28;20017;-60
2023/04/14 06:58:42;;;;;;;13.70;13.10;;;;;;;;;;5048330;28;20048;-60
2023/04/14 07:01:07;;;;;;;13.27;12.68;;;;;;;;;;5049071;28;20013;-60
2023/04/14 07:03:33;;;;;;;13.13;12.52;;;;;;;;;;5049363;28;20021;-59
2023/04/14 07:06:05;;;;;;;13.45;12.85;;;;;;;;;;5048954;28;20068;-60
2023/04/14 07:08:31;;;;;;;13.40;12.80;;;;;;;;;;5052152;28;20037;-59
2023/04/14 07:11:04;;;;;;;13.18;12.57;;;;;;;;;;5052213;28;20040;-59
2023/04/14 07:13:29;;;;;;;13.23;12.63;;;;;;;;;;5051991;28;20108;-61
2023/04/14 07:15:55;;;;;;;13.52;12.93;;;;;;;;;;5051874;28;20063;-61
2023/04/14 07:18:20;;;;;;;13.40;12.80;;;;;;;;;;5051885;28;20028;-60
2023/04/14 07:20:47;;;;;;;14.80;14.10;;;;;;;;;;5051409;28;20032;-60
2023/04/14 07:23:13;;;;;;;13.23;12.63;;;;;;;;;;5046558;28;20029;-63
2023/04/14 07:25:38;;;;;;;13.07;12.48;;;;;;;;;;5051617;28;20020;-59
2023/04/14 07:28:03;;;;;;;14.23;13.52;;;;;;;;;;5051149;28;20024;-59
2023/04/14 07:30:29;;;;;;;13.50;12.90;;;;;;;;;;5045102;28;20511;-60
2023/04/14 07:32:54;;;;;;;13.85;13.15;;;;;;;;;;5046798;28;20024;-59
2023/04/14 07:35:20;;;;;;;14.43;13.73;;;;;;;;;;5041409;28;20100;-60
2023/04/14 07:37:45;;;;;;;13.98;13.27;;;;;;;;;;5041602;28;20401;-60
2023/04/14 07:40:10;;;;;;;14.15;13.45;;;;;;;;;;5050926;28;20052;-60
2023/04/14 07:42:36;;;;;;;13.90;13.20;;;;;;;;;;5051604;28;20053;-59
2023/04/14 07:45:02;;;;;;;13.77;13.07;;;;;;;;;;5051557;28;20027;-59
2023/04/14 07:47:27;;;;;;;13.93;13.23;;;;;;;;;;5048431;28;20445;-58
2023/04/14 07:49:53;;;;;;;14.00;13.30;;;;;;;;;;5051168;28;20480;-60
2023/04/14 07:52:19;;;;;;;13.93;13.23;;;;;;;;;;5053876;28;20029;-60
2023/04/14 07:54:44;;;;;;;13.50;12.90;;;;;;;;;;5051458;28;20098;-60
2023/04/14 07:57:10;;;;;;;13.65;13.00;;;;;;;;;;5050505;28;20025;-60
2023/04/14 07:59:37;;;;;;;14.15;13.45;;;;;;;;;;5046541;28;20128;-60
2023/04/14 08:02:02;;;;;;;13.70;13.05;;;;;;;;;;5043356;28;20017;-59
2023/04/14 08:04:27;;;;;;;13.30;12.70;;;;;;;;;;5051020;28;20025;-60
2023/04/14 08:06:53;;;;;;;13.20;12.60;;;;;;;;;;5051160;28;20611;-61
2023/04/14 08:09:18;;;;;;;13.10;12.50;;;;;;;;;;5050071;28;20021;-60
2023/04/14 08:11:44;;;;;;;13.15;12.55;;;;;;;;;;5051147;28;20071;-60
2023/04/14 08:14:09;;;;;;;13.40;12.80;;;;;;;;;;5050110;28;20027;-60
2023/04/14 08:16:35;;;;;;;13.32;12.73;;;;;;;;;;5051119;28;20024;-60
2023/04/14 08:19:01;;;;;;;14.63;13.93;;;;;;;;;;5050988;28;20017;-60
2023/04/14 08:21:26;;;;;;;14.30;13.60;;;;;;;;;;5051291;28;20151;-60
2023/04/14 08:23:51;;;;;;;14.88;14.07;;;;;;;;;;5050898;28;20388;-59
2023/04/14 08:26:17;;;;;;;14.50;13.80;;;;;;;;;;5049506;28;20507;-61
2023/04/14 08:28:42;;;;;;;15.02;14.23;;;;;;;;;;5050749;28;20055;-61
2023/04/14 08:31:07;;;;;;;14.07;13.38;;;;;;;;;;5050108;28;20107;-59
2023/04/14 08:33:33;;;;;;;14.32;13.63;;;;;;;;;;5050828;28;20430;-60
2023/04/14 08:35:58;;;;;;;14.77;13.98;;;;;;;;;;5050726;28;20029;-61
2023/04/14 08:38:23;;;;;;;14.35;13.65;;;;;;;;;;5051298;28;20017;-60
2023/04/14 08:40:52;;;;;;;13.75;13.10;;;;;;;;;;5051141;28;20017;-59
2023/04/14 08:43:17;;;;;;;14.88;14.07;;;;;;;;;;5044973;28;20029;-60
2023/04/14 08:45:43;;;;;;;14.65;13.85;;;;;;;;;;5054735;28;20027;-60
2023/04/14 08:48:09;;;;;;;15.35;14.55;;;;;;;;;;5041868;28;20021;-60
2023/04/14 08:50:44;;;;;;;14.48;13.68;;;;;;;;;;5054771;28;20384;-61
2023/04/14 08:53:10;;;;;;;14.48;13.68;;;;;;;;;;5054490;28;20625;-60
2023/04/14 08:55:40;;;;;;;14.65;13.85;;;;;;;;;;5054869;28;20480;-59
2023/04/14 08:58:06;;;;;;;14.50;13.70;;;;;;;;;;5054853;28;20427;-60
2023/04/14 09:00:31;;;;;;;14.25;13.52;;;;;;;;;;5055604;28;20558;-60
2023/04/14 09:02:57;;;;;;;15.50;14.60;;;;;;;;;;5053982;28;20025;-61
2023/04/14 09:05:23;;;;;;;14.65;13.85;;;;;;;;;;5054448;28;20102;-61
2023/04/14 09:07:48;;;;;;;14.75;13.95;;;;;;;;;;5054332;28;20060;-60
2023/04/14 09:10:14;;;;;;;14.30;13.60;;;;;;;;;;5050057;28;20020;-60
2023/04/14 09:12:40;;;;;;;14.77;13.98;;;;;;;;;;5052305;28;20017;-60
2023/04/14 09:15:06;;;;;;;14.98;14.18;;;;;;;;;;5056801;28;20028;-60
2023/04/14 09:17:31;;;;;;;13.93;13.23;;;;;;;;;;5054339;28;20021;-60
2023/04/14 09:19:57;;;;;;;15.00;14.20;;;;;;;;;;5053387;28;20021;-61
2023/04/14 09:22:22;;;;;;;14.95;14.15;;;;;;;;;;5052518;28;20017;-60
2023/04/14 09:24:49;;;;;;;15.02;14.23;;;;;;;;;;5036128;28;20021;-60
2023/04/14 09:27:14;;;;;;;14.70;13.90;;;;;;;;;;5054288;28;20025;-61
2023/04/14 09:29:40;;;;;;;14.65;13.85;;;;;;;;;;5053984;28;20401;-60
2023/04/14 09:32:05;;;;;;;14.95;14.15;;;;;;;;;;5052689;28;20016;-60
2023/04/14 09:34:31;;;;;;;14.95;14.15;;;;;;;;;;5053608;28;20047;-61
2023/04/14 09:37:04;;;;;;;14.68;13.88;;;;;;;;;;5053343;28;20101;-60
2023/04/14 09:39:30;;;;;;;14.57;13.77;;;;;;;;;;5047752;28;20020;-61
2023/04/14 09:41:55;;;;;;;14.07;13.35;;;;;;;;;;5053973;28;20024;-61
2023/04/14 09:44:21;;;;;;;14.23;13.52;;;;;;;;;;5054045;28;20032;-60
2023/04/14 09:47:00;;;;;;;14.80;14.00;;;;;;;;;;5053360;28;20052;-61
2023/04/14 09:49:26;;;;;;;14.48;13.68;;;;;;;;;;5041803;28;20027;-60
2023/04/14 09:51:53;;;;;;;14.23;13.48;;;;;;;;;;5053549;28;20503;-61
2023/04/14 09:54:23;;;;;;;13.70;13.00;;;;;;;;;;5040019;28;20437;-60
2023/04/14 09:56:48;;;;;;;14.77;13.98;;;;;;;;;;5053551;28;20021;-60
2023/04/14 09:59:14;;;;;;;14.57;13.77;;;;;;;;;;5053183;28;20075;-61
2023/04/14 10:01:44;;;;;;;14.80;14.00;;;;;;;;;;5053796;28;20062;-61
2023/04/14 10:04:20;;;;;;;13.95;13.25;;;;;;;;;;5053160;28;20029;-60
2023/04/14 10:06:46;;;;;;;13.80;13.10;;;;;;;;;;5053465;28;20028;-61
2023/04/14 10:09:19;;;;;;;13.68;12.98;;;;;;;;;;5053633;28;20117;-60
2023/04/14 10:11:45;;;;;;;13.30;12.60;;;;;;;;;;5052493;28;20099;-61
2023/04/14 10:14:10;;;;;;;13.80;13.10;;;;;;;;;;5053378;28;20469;-61
2023/04/14 10:16:36;;;;;;;14.60;13.80;;;;;;;;;;5053287;28;20024;-61
2023/04/14 10:19:01;;;;;;;14.60;13.80;;;;;;;;;;5048456;28;20370;-60
2023/04/14 10:21:27;;;;;;;13.73;13.02;;;;;;;;;;5047157;28;20017;-61
2023/04/14 10:23:54;;;;;;;13.98;13.27;;;;;;;;;;5052792;28;20554;-61
2023/04/14 10:26:19;;;;;;;13.95;13.25;;;;;;;;;;5053231;28;20024;-59
2023/04/14 10:28:46;;;;;;;14.00;13.30;;;;;;;;;;5051998;28;20660;-62
2023/04/14 10:31:18;;;;;;;14.57;13.77;;;;;;;;;;5053140;28;20033;-61
2023/04/14 10:33:44;;;;;;;14.43;13.63;;;;;;;;;;5049864;28;20040;-62
2023/04/14 10:36:09;;;;;;;14.23;13.45;;;;;;;;;;5044253;28;20013;-61
2023/04/14 10:38:38;;;;;;;13.77;13.07;;;;;;;;;;5052820;28;20126;-60
2023/04/14 10:41:04;;;;;;;14.95;14.15;;;;;;;;;;5052613;28;20036;-61
2023/04/14 10:43:30;;;;;;;14.10;13.38;;;;;;;;;;5052802;28;20021;-60
2023/04/14 10:45:56;;;;;;;13.38;12.68;;;;;;;;;;5051883;28;20484;-61
2023/04/14 10:48:25;;;;;;;13.93;13.23;;;;;;;;;;5051422;28;20523;-62
2023/04/14 10:50:54;;;;;;;14.05;13.35;;;;;;;;;;5052613;28;20483;-61
2023/04/14 10:53:22;;;;;;;13.95;13.25;;;;;;;;;;5052243;28;20499;-61
2023/04/14 10:55:50;;;;;;;13.85;13.15;;;;;;;;;;5052526;28;20019;-61
2023/04/14 10:58:20;;;;;;;13.45;12.75;;;;;;;;;;5044856;28;20063;-61
2023/04/14 11:00:46;;;;;;;13.65;12.95;;;;;;;;;;5052352;28;20141;-60
2023/04/14 11:03:16;;;;;;;14.70;13.90;;;;;;;;;;5044025;28;20045;-62
2023/04/14 11:05:47;;;;;;;13.70;13.00;;;;;;;;;;5050633;28;20017;-61
2023/04/14 11:08:16;;;;;;;13.57;12.88;;;;;;;;;;5052468;28;20025;-60
2023/04/14 11:10:50;;;;;;;13.70;13.00;;;;;;;;;;5052482;28;20398;-61
2023/04/14 11:13:16;;;;;;;13.98;13.27;;;;;;;;;;5052201;28;20025;-60
2023/04/14 11:15:42;;;;;;;14.13;13.40;;;;;;;;;;5059739;28;20031;-61
2023/04/14 11:18:12;;;;;;;14.50;13.70;;;;;;;;;;5048439;28;20017;-61
2023/04/14 11:20:39;;;;;;;13.43;12.73;;;;;;;;;;5051239;28;20017;-61
2023/04/14 11:23:04;;;;;;;14.82;14.02;;;;;;;;;;5050393;28;20094;-61
2023/04/14 11:25:30;;;;;;;14.68;13.88;;;;;;;;;;5051533;28;20472;-61
2023/04/14 11:28:00;;;;;;;14.27;13.48;;;;;;;;;;5051465;28;20029;-61
2023/04/14 11:30:26;;;;;;;14.25;13.48;;;;;;;;;;5051387;28;20096;-60
2023/04/14 11:32:52;;;;;;;14.55;13.75;;;;;;;;;;5051297;28;20187;-61
2023/04/14 11:35:18;;;;;;;14.25;13.45;;;;;;;;;;5051399;28;20074;-60
2023/04/14 11:37:43;;;;;;;14.73;13.93;;;;;;;;;;5050577;28;20486;-61
2023/04/14 11:40:09;;;;;;;14.25;13.48;;;;;;;;;;5051064;28;20021;-61
2023/04/14 11:42:35;;;;;;;15.00;14.20;;;;;;;;;;5049508;28;20334;-61
2023/04/14 11:45:01;;;;;;;13.80;13.10;;;;;;;;;;5046428;28;20032;-61
2023/04/14 11:47:27;;;;;;;13.30;12.63;;;;;;;;;;5050957;28;20075;-61
2023/04/14 11:49:52;;;;;;;14.05;13.35;;;;;;;;;;5051302;28;20435;-61
2023/04/14 11:52:18;;;;;;;14.77;13.98;;;;;;;;;;5051609;28;20117;-61
2023/04/14 11:54:43;;;;;;;14.10;13.35;;;;;;;;;;5050359;28;20021;-60
2023/04/14 11:57:10;;;;;;;13.90;13.20;;;;;;;;;;5043208;28;20017;-61
2023/04/14 11:59:42;;;;;;;14.13;13.43;;;;;;;;;;5050876;28;20042;-61
2023/04/14 12:02:14;;;;;;;14.32;13.52;;;;;;;;;;5051254;28;20096;-61
2023/04/14 12:04:39;;;;;;;14.32;13.57;;;;;;;;;;5038163;28;20048;-61
2023/04/14 12:07:08;;;;;;;14.30;13.52;;;;;;;;;;5051346;28;20049;-61
2023/04/14 12:09:34;;;;;;;14.43;13.63;;;;;;;;;;5038052;28;20056;-60
2023/04/14 12:11:59;;;;;;;14.93;14.13;;;;;;;;;;5042189;28;20052;-61
2023/04/14 12:14:24;;;;;;;14.73;13.93;;;;;;;;;;5056769;28;20392;-62
2023/04/14 12:16:50;;;;;;;14.57;13.77;;;;;;;;;;5051956;28;20023;-60
2023/04/14 12:19:15;;;;;;;13.75;13.05;;;;;;;;;;5050991;28;20041;-60
2023/04/14 12:21:40;;;;;;;13.90;13.20;;;;;;;;;;5050500;28;20092;-60
2023/04/14 12:24:06;;;;;;;15.05;14.20;;;;;;;;;;5050472;28;20029;-61
2023/04/14 12:26:31;;;;;;;14.50;13.70;;;;;;;;;;5050359;28;20045;-60
2023/04/14 12:28:57;;;;;;;14.52;13.73;;;;;;;;;;5049802;28;20053;-60
2023/04/14 12:31:29;;;;;;;15.25;14.35;;;;;;;;;;5050863;28;20128;-60
2023/04/14 12:34:00;;;;;;;15.63;14.73;;;;;;;;;;5050457;28;20361;-61
2023/04/14 12:36:27;;;;;;;15.73;14.82;;;;;;;;;;5050214;28;20036;-60
2023/04/14 12:38:53;;;;;;;14.35;13.55;;;;;;;;;;5050712;28;20021;-61
2023/04/14 12:41:22;;;;;;;14.75;13.95;;;;;;;;;;5050591;28;20147;-60
2023/04/14 12:43:47;;;;;;;14.68;13.88;;;;;;;;;;5050426;28;20029;-61
2023/04/14 12:46:21;;;;;;;13.95;13.25;;;;;;;;;;5049776;28;20502;-61
2023/04/14 12:48:47;;;;;;;14.63;13.82;;;;;;;;;;5050713;28;20504;-60
2023/04/14 12:51:13;;;;;;;15.55;14.65;;;;;;;;;;5050377;28;20121;-61
2023/04/14 12:53:40;;;;;;;14.45;13.65;;;;;;;;;;5050880;28;20013;-60
2023/04/14 12:56:12;;;;;;;13.88;13.18;;;;;;;;;;5059843;28;20013;-60
2023/04/14 12:58:39;;;;;;;13.90;13.18;;;;;;;;;;5053334;28;20143;-61
2023/04/14 13:01:05;;;;;;;14.25;13.45;;;;;;;;;;5048848;28;20028;-62
2023/04/14 13:03:41;;;;;;;13.88;13.18;;;;;;;;;;5047002;28;20021;-61
2023/04/14 13:06:07;;;;;;;14.93;14.10;;;;;;;;;;5050790;28;20384;-61
2023/04/14 13:08:32;;;;;;;14.18;13.45;;;;;;;;;;5043179;28;20025;-61
2023/04/14 13:10:57;;;;;;;14.20;13.43;;;;;;;;;;5050326;28;20060;-60
2023/04/14 13:13:23;;;;;;;13.95;13.25;;;;;;;;;;5051017;28;20107;-61
2023/04/14 13:15:48;;;;;;;14.35;13.55;;;;;;;;;;5053445;28;20051;-60
2023/04/14 13:18:15;;;;;;;14.13;13.38;;;;;;;;;;5049921;28;20041;-60
2023/04/14 13:20:40;;;;;;;14.43;13.63;;;;;;;;;;5045472;28;20399;-61
2023/04/14 13:23:06;;;;;;;14.20;13.45;;;;;;;;;;5045397;28;20021;-61
2023/04/14 13:25:31;;;;;;;13.48;12.77;;;;;;;;;;5050285;28;20021;-60
2023/04/14 13:27:56;;;;;;;13.88;13.18;;;;;;;;;;5050278;28;20041;-60
2023/04/14 13:30:22;;;;;;;13.93;13.23;;;;;;;;;;5052621;28;20013;-61
2023/04/14 13:32:47;;;;;;;14.63;13.82;;;;;;;;;;5053817;28;20478;-61
2023/04/14 13:35:12;;;;;;;13.60;12.90;;;;;;;;;;5045753;28;20025;-61
2023/04/14 13:37:38;;;;;;;13.82;13.13;;;;;;;;;;5053920;28;20120;-60
2023/04/14 13:40:03;;;;;;;13.50;12.80;;;;;;;;;;5053688;28;20017;-60
2023/04/14 13:42:28;;;;;;;13.75;13.05;;;;;;;;;;5053578;28;20025;-60
2023/04/14 13:44:54;;;;;;;13.68;12.98;;;;;;;;;;5053643;28;20499;-60
2023/04/14 13:47:19;;;;;;;13.70;13.00;;;;;;;;;;5053707;28;20021;-61
2023/04/14 13:49:44;;;;;;;13.55;12.85;;;;;;;;;;5052726;28;20059;-60
2023/04/14 13:52:10;;;;;;;14.15;13.38;;;;;;;;;;5040294;28;20057;-61
2023/04/14 13:54:36;;;;;;;14.00;13.30;;;;;;;;;;5053830;28;20023;-61
2023/04/14 13:57:01;;;;;;;13.77;13.07;;;;;;;;;;5053411;28;20043;-61
2023/04/14 13:59:26;;;;;;;14.15;13.35;;;;;;;;;;5053683;28;20052;-61
2023/04/14 14:01:52;;;;;;;13.82;13.13;;;;;;;;;;5053799;28;20045;-60
2023/04/14 14:04:17;;;;;;;12.80;12.20;;;;;;;;;;5040476;28;20064;-61
2023/04/14 14:06:42;;;;;;;12.57;11.98;;;;;;;;;;5049301;28;20025;-61
2023/04/14 14:09:08;;;;;;;13.75;13.05;;;;;;;;;;5052829;28;20025;-61
2023/04/14 14:11:33;;;;;;;13.43;12.73;;;;;;;;;;5053305;28;20021;-61
2023/04/14 14:13:58;;;;;;;14.45;13.65;;;;;;;;;;5055674;28;20048;-61